createdAt,value
2024-05-09T00:01:39.395Z,10.10
2024-05-09T00:04:09.909Z,10.10
2024-05-09T00:06:43.313Z,10.10
2024-05-09T00:09:15.828Z,10.00
2024-05-09T00:11:46.791Z,10.10
2024-05-09T00:14:19.377Z,10.00
2024-05-09T00:19:35.306Z,10.00
2024-05-09T00:22:09.460Z,10.10
2024-05-09T00:24:41.083Z,10.00
2024-05-09T00:27:13.340Z,10.00
2024-05-09T00:29:43.943Z,10.00
2024-05-09T00:32:20.297Z,10.00
2024-05-09T00:34:51.956Z,9.90
2024-05-09T00:37:25.264Z,9.90
2024-05-09T00:39:56.007Z,9.90
2024-05-09T00:42:26.731Z,9.90
2024-05-09T00:44:58.645Z,9.90
2024-05-09T00:47:30.102Z,9.90
2024-05-09T00:50:00.789Z,9.90
2024-05-09T00:52:35.036Z,10.00
2024-05-09T00:55:06.115Z,9.90
2024-05-09T00:57:37.034Z,9.90
2024-05-09T01:00:18.359Z,9.90
2024-05-09T01:02:57.444Z,9.90
2024-05-09T01:05:28.515Z,10.00
2024-05-09T01:10:51.749Z,9.90
2024-05-09T01:13:22.392Z,9.90
2024-05-09T01:16:01.693Z,9.80
2024-05-09T01:18:35.731Z,9.90
2024-05-09T01:21:15.663Z,9.90
2024-05-09T01:23:57.199Z,9.90
2024-05-09T01:26:28.074Z,9.80
2024-05-09T01:28:58.537Z,9.80
2024-05-09T01:31:32.002Z,9.80
2024-05-09T01:34:11.335Z,9.80
2024-05-09T01:36:45.906Z,9.80
2024-05-09T01:39:19.422Z,9.80
2024-05-09T01:41:49.793Z,9.90
2024-05-09T01:44:20.144Z,9.80
2024-05-09T01:46:51.050Z,9.80
2024-05-09T01:49:21.651Z,9.80
2024-05-09T01:51:51.897Z,9.80
2024-05-09T01:54:25.394Z,9.80
2024-05-09T01:56:57.903Z,9.80
2024-05-09T01:59:28.280Z,9.80
2024-05-09T02:01:59.658Z,9.80
2024-05-09T02:04:30.862Z,9.80
2024-05-09T02:07:01.310Z,9.80
2024-05-09T02:09:34.773Z,9.80
2024-05-09T02:12:06.048Z,9.80
2024-05-09T02:14:36.682Z,9.80
2024-05-09T02:17:07.738Z,9.80
2024-05-09T02:19:38.894Z,9.80
2024-05-09T02:22:09.556Z,9.80
2024-05-09T02:24:47.206Z,9.80
2024-05-09T02:27:19.357Z,9.80
2024-05-09T02:29:49.562Z,9.80
2024-05-09T02:32:20.400Z,9.80
2024-05-09T02:34:48.588Z,9.80
2024-05-09T02:37:21.916Z,9.90
2024-05-09T02:39:53.967Z,9.80
2024-05-09T02:42:26.653Z,9.90
2024-05-09T02:44:58.153Z,9.90
2024-05-09T02:47:32.225Z,9.90
2024-05-09T02:50:00.144Z,9.80
2024-05-09T02:55:15.075Z,9.80
2024-05-09T02:57:46.702Z,9.80
2024-05-09T03:03:03.084Z,9.80
2024-05-09T03:05:30.742Z,9.80
2024-05-09T03:08:01.008Z,9.80
2024-05-09T03:10:36.156Z,9.80
2024-05-09T03:13:10.880Z,9.80
2024-05-09T03:15:38.871Z,9.80
2024-05-09T03:18:09.932Z,9.80
2024-05-09T03:20:39.159Z,9.80
2024-05-09T03:23:12.218Z,9.70
2024-05-09T03:25:45.069Z,9.70
2024-05-09T03:28:16.638Z,9.70
2024-05-09T03:30:45.839Z,9.70
2024-05-09T03:33:19.376Z,9.70
2024-05-09T03:35:49.745Z,9.70
2024-05-09T03:38:20.396Z,9.70
2024-05-09T03:40:57.469Z,9.70
2024-05-09T03:43:27.742Z,9.70
2024-05-09T03:45:55.865Z,9.70
2024-05-09T03:48:26.954Z,9.70
2024-05-09T03:50:56.404Z,9.70
2024-05-09T03:56:13.635Z,9.70
2024-05-09T03:58:44.220Z,9.70
2024-05-09T04:01:13.270Z,9.70
2024-05-09T04:03:44.437Z,9.70
2024-05-09T04:06:12.490Z,9.70
2024-05-09T04:08:43.318Z,9.70
2024-05-09T04:11:14.874Z,9.70
2024-05-09T04:13:45.377Z,9.70
2024-05-09T04:16:13.153Z,9.70
2024-05-09T04:18:44.204Z,9.60
2024-05-09T04:21:11.788Z,9.60
2024-05-09T04:23:46.621Z,9.60
2024-05-09T04:26:17.181Z,9.60
2024-05-09T04:28:48.338Z,9.70
2024-05-09T04:31:15.752Z,9.60
2024-05-09T04:33:47.311Z,9.60
2024-05-09T04:36:14.992Z,9.60
2024-05-09T04:38:45.970Z,9.60
2024-05-09T04:41:17.272Z,9.60
2024-05-09T04:43:47.455Z,9.60
2024-05-09T04:46:15.534Z,9.70
2024-05-09T04:48:45.844Z,9.70
2024-05-09T04:51:13.434Z,9.70
2024-05-09T04:53:44.457Z,9.70
2024-05-09T04:56:12.180Z,9.80
2024-05-09T04:58:46.198Z,9.80
2024-05-09T05:01:15.352Z,9.80
2024-05-09T05:03:46.619Z,9.80
2024-05-09T05:06:14.305Z,9.90
2024-05-09T05:08:44.452Z,9.80
2024-05-09T05:11:12.731Z,9.90
2024-05-09T05:13:45.796Z,9.80
2024-05-09T05:16:13.677Z,9.80
2024-05-09T05:18:44.652Z,9.90
2024-05-09T05:21:12.490Z,9.90
2024-05-09T05:23:43.160Z,9.90
2024-05-09T05:26:10.727Z,9.90
2024-05-09T05:28:42.220Z,9.90
2024-05-09T05:31:17.532Z,10.00
2024-05-09T05:33:47.808Z,10.00
2024-05-09T05:36:15.502Z,10.10
2024-05-09T05:38:48.211Z,10.10
2024-05-09T05:41:16.157Z,10.20
2024-05-09T05:43:47.083Z,10.30
2024-05-09T05:46:18.509Z,10.30
2024-05-09T05:48:58.016Z,10.30
2024-05-09T05:51:32.706Z,10.40
2024-05-09T05:54:03.117Z,10.40
2024-05-09T05:56:31.574Z,10.40
2024-05-09T05:59:12.598Z,10.40
2024-05-09T06:01:44.355Z,10.50
2024-05-09T06:04:14.683Z,10.50
2024-05-09T06:06:42.188Z,10.60
2024-05-09T06:09:13.189Z,10.70
2024-05-09T06:11:41.306Z,10.80
2024-05-09T06:14:13.583Z,11.00
2024-05-09T06:16:44.550Z,11.50
2024-05-09T06:19:15.146Z,12.00
2024-05-09T06:21:43.036Z,12.10
2024-05-09T06:24:14.229Z,12.20
2024-05-09T06:26:43.036Z,12.30
2024-05-09T06:29:14.607Z,12.20
2024-05-09T06:31:46.426Z,12.20
2024-05-09T06:34:18.709Z,12.20
2024-05-09T06:36:46.682Z,12.50
2024-05-09T06:39:17.006Z,13.20
2024-05-09T06:41:44.582Z,13.50
2024-05-09T06:44:15.706Z,13.80
2024-05-09T06:46:46.687Z,13.90
2024-05-09T06:49:18.068Z,13.80
2024-05-09T06:51:45.925Z,13.40
2024-05-09T06:54:18.457Z,13.10
2024-05-09T06:56:46.206Z,12.90
2024-05-09T06:59:17.778Z,12.90
2024-05-09T07:01:48.137Z,12.90
2024-05-09T07:04:21.021Z,13.00
2024-05-09T07:06:48.890Z,13.10
2024-05-09T07:09:19.796Z,13.20
2024-05-09T07:11:47.704Z,13.20
2024-05-09T07:14:18.583Z,13.50
2024-05-09T07:16:49.150Z,13.80
2024-05-09T07:19:19.512Z,14.50
2024-05-09T07:21:47.046Z,14.60
2024-05-09T07:24:17.641Z,14.60
2024-05-09T07:26:45.243Z,14.30
2024-05-09T07:29:15.658Z,14.00
2024-05-09T07:31:43.127Z,14.30
2024-05-09T07:34:16.586Z,14.30
2024-05-09T07:36:44.236Z,14.40
2024-05-09T07:39:14.415Z,14.70
2024-05-09T07:41:41.861Z,14.90
2024-05-09T07:44:12.089Z,15.00
2024-05-09T07:47:47.658Z,15.00
2024-05-09T07:53:26.784Z,15.60
2024-05-09T07:54:52.975Z,15.70
2024-05-09T07:57:20.536Z,16.20
2024-05-09T07:59:51.126Z,16.40
2024-05-09T08:02:18.751Z,16.70
2024-05-09T08:04:53.483Z,17.10
2024-05-09T08:07:21.570Z,16.60
2024-05-09T08:09:52.715Z,16.10
2024-05-09T08:12:20.557Z,16.20
2024-05-09T08:14:55.057Z,16.00
2024-05-09T08:17:22.704Z,15.50
2024-05-09T08:20:08.639Z,15.10
2024-05-09T08:22:37.246Z,14.70
2024-05-09T08:25:09.288Z,15.00
2024-05-09T08:27:37.605Z,15.10
2024-05-09T08:30:15.263Z,15.20
2024-05-09T08:32:48.259Z,15.20
2024-05-09T08:35:21.518Z,15.00
2024-05-09T08:37:50.253Z,15.40
2024-05-09T08:40:30.440Z,16.00
2024-05-09T08:43:02.979Z,16.20
2024-05-09T08:45:38.435Z,16.20
2024-05-09T08:48:08.937Z,16.30
2024-05-09T08:50:46.392Z,16.90
2024-05-09T08:53:14.950Z,17.30
2024-05-09T08:55:45.881Z,16.90
2024-05-09T08:58:16.290Z,16.90
2024-05-09T09:00:48.096Z,17.00
2024-05-09T09:03:17.916Z,17.00
2024-05-09T09:06:00.313Z,16.90
2024-05-09T09:08:27.948Z,17.00
2024-05-09T09:11:00.380Z,16.90
2024-05-09T09:13:28.293Z,16.80
2024-05-09T09:15:59.407Z,16.80
2024-05-09T09:18:28.116Z,16.90
2024-05-09T09:21:01.359Z,17.00
2024-05-09T09:23:29.943Z,16.90
2024-05-09T09:26:02.247Z,16.60
2024-05-09T09:28:30.079Z,16.50
2024-05-09T09:31:05.946Z,16.70
2024-05-09T09:33:36.046Z,16.60
2024-05-09T09:36:13.623Z,16.30
2024-05-09T09:38:41.662Z,16.20
2024-05-09T09:41:13.440Z,15.80
2024-05-09T09:43:42.426Z,15.50
2024-05-09T09:48:57.610Z,15.10
2024-05-09T09:51:34.598Z,15.00
2024-05-09T09:54:03.984Z,15.00
2024-05-09T09:56:35.408Z,14.90
2024-05-09T09:59:05.594Z,15.00
2024-05-09T10:01:36.889Z,14.90
2024-05-09T10:04:05.671Z,15.00
2024-05-09T10:06:44.065Z,15.00
2024-05-09T10:09:14.169Z,15.00
2024-05-09T10:11:49.186Z,15.10
2024-05-09T10:14:22.417Z,15.10
2024-05-09T10:16:52.716Z,15.10
2024-05-09T10:19:25.402Z,15.30
2024-05-09T10:22:03.604Z,15.40
2024-05-09T10:24:48.835Z,15.50
2024-05-09T10:27:21.186Z,15.50
2024-05-09T10:29:52.886Z,15.50
2024-05-09T10:32:23.869Z,15.50
2024-05-09T10:35:01.971Z,15.50
2024-05-09T10:37:37.256Z,15.60
2024-05-09T10:40:11.916Z,15.70
2024-05-09T10:43:05.770Z,15.80
2024-05-09T10:45:35.959Z,15.70
2024-05-09T10:48:06.883Z,15.60
2024-05-09T10:50:35.430Z,15.60
2024-05-09T10:53:08.937Z,15.70
2024-05-09T10:55:36.400Z,15.80
2024-05-09T10:58:06.886Z,15.80
2024-05-09T11:00:36.376Z,15.80
2024-05-09T11:03:07.530Z,15.80
2024-05-09T11:05:36.150Z,15.80
2024-05-09T11:08:11.171Z,15.70
2024-05-09T11:10:39.712Z,15.70
2024-05-09T11:13:10.139Z,15.80
2024-05-09T11:15:41.491Z,15.90
2024-05-09T11:18:25.887Z,16.00
2024-05-09T11:20:55.639Z,16.10
2024-05-09T11:23:30.839Z,16.10
2024-05-09T11:25:59.189Z,16.20
2024-05-09T11:28:31.352Z,16.20
2024-05-09T11:31:06.878Z,16.10
2024-05-09T11:33:42.161Z,16.10
2024-05-09T11:36:11.926Z,16.10
2024-05-09T11:38:45.997Z,16.10
2024-05-09T11:41:19.323Z,16.20
2024-05-09T11:43:50.063Z,16.40
2024-05-09T11:46:17.871Z,16.30
2024-05-09T12:05:27.970Z,16.50
2024-05-09T12:10:40.999Z,16.70
2024-05-09T12:13:09.115Z,16.70
2024-05-09T12:15:40.026Z,16.90
2024-05-09T12:18:09.163Z,16.90
2024-05-09T12:20:42.921Z,16.90
2024-05-09T12:23:11.003Z,17.00
2024-05-09T12:25:42.080Z,16.80
2024-05-09T12:28:10.276Z,16.80
2024-05-09T12:30:41.936Z,16.80
2024-05-09T12:33:11.968Z,16.80
2024-05-09T12:35:49.237Z,16.60
2024-05-09T12:38:20.094Z,16.70
2024-05-09T12:40:50.693Z,16.60
2024-05-09T12:43:19.739Z,16.40
2024-05-09T12:45:50.671Z,16.40
2024-05-09T12:48:18.644Z,16.60
2024-05-09T12:50:51.941Z,16.60
2024-05-09T12:53:19.540Z,16.80
2024-05-09T12:55:56.860Z,16.80
2024-05-09T12:58:27.864Z,16.90
2024-05-09T13:00:58.369Z,17.10
2024-05-09T13:03:26.168Z,17.30
2024-05-09T13:05:59.232Z,17.30
2024-05-09T13:08:27.893Z,17.50
2024-05-09T13:10:58.416Z,17.50
2024-05-09T13:13:26.867Z,17.50
2024-05-09T13:15:57.153Z,17.70
2024-05-09T13:18:24.782Z,17.50
2024-05-09T13:20:55.336Z,17.00
2024-05-09T13:23:25.677Z,16.70
2024-05-09T13:25:56.103Z,16.50
2024-05-09T13:28:23.621Z,16.20
2024-05-09T13:30:54.337Z,16.20
2024-05-09T13:33:21.863Z,16.30
2024-05-09T13:35:52.460Z,16.40
2024-05-09T13:38:20.753Z,16.50
2024-05-09T13:40:54.485Z,16.50
2024-05-09T13:43:23.329Z,16.60
2024-05-09T13:45:55.414Z,16.70
2024-05-09T13:48:23.275Z,16.70
2024-05-09T13:50:54.162Z,16.70
2024-05-09T13:53:21.639Z,16.80
2024-05-09T13:55:56.149Z,16.90
2024-05-09T13:58:24.053Z,17.00
2024-05-09T14:00:54.451Z,17.10
2024-05-09T14:03:22.191Z,16.90
2024-05-09T14:05:52.919Z,17.00
2024-05-09T14:08:22.560Z,17.00
2024-05-09T14:10:56.318Z,17.00
2024-05-09T14:13:23.828Z,17.00
2024-05-09T14:15:54.058Z,17.10
2024-05-09T14:18:21.754Z,17.20
2024-05-09T14:20:52.005Z,17.20
2024-05-09T14:23:19.442Z,17.30
2024-05-09T14:25:52.170Z,17.30
2024-05-09T14:28:24.624Z,17.30
2024-05-09T14:30:56.541Z,17.40
2024-05-09T14:33:26.831Z,17.30
2024-05-09T14:35:57.402Z,17.40
2024-05-09T14:38:25.383Z,17.50
2024-05-09T14:40:55.936Z,17.50
2024-05-09T14:43:26.409Z,17.50
2024-05-09T14:45:57.002Z,17.40
2024-05-09T14:48:24.516Z,17.40
2024-05-09T14:50:54.584Z,17.40
2024-05-09T14:53:23.668Z,17.30
2024-05-09T14:55:53.871Z,17.30
2024-05-09T14:58:21.539Z,17.20
2024-05-09T15:00:54.488Z,17.10
2024-05-09T15:03:22.669Z,17.10
2024-05-09T15:05:53.791Z,17.00
2024-05-09T15:08:21.261Z,17.10
2024-05-09T15:10:52.264Z,17.20
2024-05-09T15:13:20.817Z,17.10
2024-05-09T15:15:53.986Z,17.00
2024-05-09T15:18:21.872Z,16.90
2024-05-09T15:20:52.250Z,17.10
2024-05-09T15:23:20.246Z,17.10
2024-05-09T15:25:50.474Z,17.00
2024-05-09T15:28:18.566Z,16.80
2024-05-09T15:30:49.006Z,16.70
2024-05-09T15:33:19.316Z,16.70
2024-05-09T15:35:50.328Z,16.60
2024-05-09T15:38:18.654Z,16.70
2024-05-09T15:40:49.008Z,16.80
2024-05-09T15:43:16.893Z,16.70
2024-05-09T15:45:47.062Z,16.70
2024-05-09T15:48:15.052Z,16.70
2024-05-09T15:50:50.898Z,16.70
2024-05-09T15:53:18.829Z,16.90
2024-05-09T15:55:49.331Z,17.20
2024-05-09T15:58:17.092Z,17.50
2024-05-09T16:00:49.739Z,17.60
2024-05-09T16:03:21.369Z,17.30
2024-05-09T16:05:57.549Z,17.20
2024-05-09T16:08:25.275Z,17.10
2024-05-09T16:10:55.926Z,16.90
2024-05-09T16:13:23.461Z,16.80
2024-05-09T16:15:56.367Z,16.80
2024-05-09T16:18:24.092Z,16.80
2024-05-09T16:21:00.475Z,16.80
2024-05-09T16:23:30.859Z,16.70
2024-05-09T16:25:58.430Z,16.70
2024-05-09T16:28:28.685Z,16.70
2024-05-09T16:30:56.122Z,16.60
2024-05-09T16:33:55.955Z,16.60
2024-05-09T16:36:26.536Z,16.50
2024-05-09T16:38:59.465Z,16.50
2024-05-09T16:41:26.844Z,16.50
2024-05-09T16:43:57.966Z,16.50
2024-05-09T16:46:25.548Z,16.50
2024-05-09T16:48:55.824Z,16.40
2024-05-09T16:51:26.273Z,16.40
2024-05-09T16:53:58.827Z,16.50
2024-05-09T16:56:29.015Z,16.60
2024-05-09T16:58:59.245Z,16.50
2024-05-09T17:01:26.656Z,16.50
2024-05-09T17:03:56.996Z,16.50
2024-05-09T17:06:27.358Z,16.50
2024-05-09T17:09:04.866Z,16.40
2024-05-09T17:11:38.675Z,16.30
2024-05-09T17:16:45.015Z,16.30
2024-05-09T17:19:15.699Z,16.30
2024-05-09T17:21:54.966Z,16.30
2024-05-09T17:27:45.156Z,16.20
2024-05-09T17:30:17.930Z,16.10
2024-05-09T17:32:56.150Z,16.00
2024-05-09T17:35:32.011Z,16.10
2024-05-09T17:38:33.648Z,16.10
2024-05-09T17:52:40.021Z,15.70
2024-05-09T17:55:17.863Z,15.60
2024-05-09T17:58:01.766Z,15.40
2024-05-09T18:08:26.674Z,14.50
2024-05-09T18:14:55.056Z,14.20
2024-05-09T18:17:34.327Z,14.00
2024-05-09T18:23:17.088Z,13.60
2024-05-09T18:31:10.821Z,13.30
2024-05-09T18:33:41.823Z,13.10
2024-05-09T18:36:12.681Z,13.00
2024-05-09T18:38:40.490Z,12.90
2024-05-09T18:41:11.238Z,12.80
2024-05-09T18:43:44.950Z,12.70
2024-05-09T18:46:45.192Z,12.60
2024-05-09T18:49:19.203Z,12.30
2024-05-09T18:52:06.258Z,12.10
2024-05-09T18:54:39.433Z,12.00
2024-05-09T18:57:10.170Z,11.90
2024-05-09T18:59:42.495Z,11.70
2024-05-09T19:02:13.516Z,11.60
2024-05-09T19:07:17.380Z,11.40
2024-05-09T19:09:44.951Z,11.30
2024-05-09T19:15:01.387Z,11.10
2024-05-09T19:17:32.588Z,10.90
2024-05-09T19:20:05.871Z,10.90
2024-05-09T19:22:46.188Z,10.80
2024-05-09T19:25:13.987Z,10.70
2024-05-09T19:27:47.271Z,10.50
2024-05-09T19:30:24.988Z,10.50
2024-05-09T19:33:04.369Z,10.40
2024-05-09T19:35:34.908Z,10.30
2024-05-09T19:38:05.602Z,10.20
2024-05-09T19:40:34.887Z,10.20
2024-05-09T19:43:07.188Z,10.10
2024-05-09T19:45:36.263Z,10.10
2024-05-09T19:48:30.412Z,10.00
2024-05-09T19:51:00.908Z,9.90
2024-05-09T19:53:31.139Z,9.90
2024-05-09T19:55:59.421Z,9.80
2024-05-09T19:58:29.920Z,9.70
2024-05-09T20:00:57.761Z,9.70
2024-05-09T20:03:28.419Z,9.60
2024-05-09T20:05:55.953Z,9.50
2024-05-09T20:08:28.974Z,9.50
2024-05-09T20:10:56.776Z,9.50
2024-05-09T20:13:28.590Z,9.40
2024-05-09T20:15:56.775Z,9.30
2024-05-09T20:18:27.070Z,9.20
2024-05-09T20:20:55.067Z,9.20
2024-05-09T20:23:45.262Z,9.20
2024-05-09T20:26:12.955Z,9.20
2024-05-09T20:28:44.970Z,9.10
2024-05-09T20:31:20.868Z,9.10
2024-05-09T20:33:51.585Z,9.10
2024-05-09T20:36:19.318Z,9.10
2024-05-09T20:38:52.280Z,9.00
2024-05-09T20:41:19.921Z,9.00
2024-05-09T20:43:53.950Z,9.00
2024-05-09T20:46:21.575Z,9.00
2024-05-09T20:48:52.940Z,8.90
2024-05-09T20:51:21.047Z,8.90
2024-05-09T20:53:58.060Z,8.80
2024-05-09T20:56:25.795Z,8.80
2024-05-09T20:58:55.937Z,8.70
2024-05-09T21:01:23.967Z,8.70
2024-05-09T21:03:54.480Z,8.60
2024-05-09T21:06:22.298Z,8.60
2024-05-09T21:08:55.689Z,8.60
2024-05-09T21:11:25.266Z,8.50
2024-05-09T21:13:55.787Z,8.40
2024-05-09T21:16:23.440Z,8.40
2024-05-09T21:18:53.845Z,8.40
2024-05-09T21:21:21.529Z,8.40
2024-05-09T21:23:54.542Z,8.40
2024-05-09T21:26:23.910Z,8.30
2024-05-09T21:28:55.681Z,8.30
2024-05-09T21:31:23.223Z,8.20
2024-05-09T21:33:54.033Z,8.20
2024-05-09T21:36:21.603Z,8.10
2024-05-09T21:38:54.681Z,8.10
2024-05-09T21:41:22.944Z,8.10
2024-05-09T21:43:53.564Z,8.10
2024-05-09T21:46:24.488Z,8.00
2024-05-09T21:48:54.947Z,7.90
2024-05-09T21:51:24.190Z,7.90
2024-05-09T21:53:58.787Z,7.90
2024-05-09T21:56:26.438Z,7.80
2024-05-09T21:58:58.812Z,7.80
2024-05-09T22:01:26.463Z,7.70
2024-05-09T22:03:56.830Z,7.70
2024-05-09T22:06:24.841Z,7.60
2024-05-09T22:08:58.263Z,7.60
2024-05-09T22:11:26.019Z,7.60
2024-05-09T22:13:59.071Z,7.60
2024-05-09T22:16:33.285Z,7.50
2024-05-09T22:19:03.571Z,7.50
2024-05-09T22:21:31.105Z,7.50
2024-05-09T22:24:04.164Z,7.40
2024-05-09T22:26:32.023Z,7.40
2024-05-09T22:29:01.989Z,7.40
2024-05-09T22:31:29.494Z,7.40
2024-05-09T22:33:59.910Z,7.30
2024-05-09T22:36:29.287Z,7.30
2024-05-09T22:39:06.912Z,7.30
2024-05-09T22:41:34.519Z,7.20
2024-05-09T22:44:05.348Z,7.20
2024-05-09T22:46:32.919Z,7.20
2024-05-09T22:49:03.282Z,7.20
2024-05-09T22:51:30.933Z,7.20
2024-05-09T22:54:01.478Z,7.20
2024-05-09T22:56:31.880Z,7.10
2024-05-09T22:59:03.275Z,7.20
2024-05-09T23:01:30.899Z,7.10
2024-05-09T23:04:06.633Z,7.10
2024-05-09T23:06:34.152Z,7.10
2024-05-09T23:09:04.389Z,7.00
2024-05-09T23:11:34.724Z,7.00
2024-05-09T23:14:04.870Z,7.00
2024-05-09T23:16:32.541Z,6.90
2024-05-09T23:19:11.583Z,6.90
2024-05-09T23:21:40.217Z,6.90
2024-05-09T23:24:10.853Z,6.90
2024-05-09T23:26:44.731Z,6.80
2024-05-09T23:29:15.108Z,6.80
2024-05-09T23:31:42.866Z,6.80
2024-05-09T23:34:15.588Z,6.80
2024-05-09T23:36:43.338Z,6.70
2024-05-09T23:39:13.445Z,6.70
2024-05-09T23:41:43.551Z,6.70
2024-05-09T23:44:14.061Z,6.70
2024-05-09T23:46:44.332Z,6.60
2024-05-09T23:49:17.155Z,6.60
2024-05-09T23:51:47.303Z,6.60
2024-05-09T23:54:14.711Z,6.60
2024-05-09T23:56:47.678Z,6.60
2024-05-09T23:59:15.218Z,6.50
